Time;durP1;ratioP1;P1;durP2;ratioP2;P2;SDS_P1;SDS_P2;PMS_P1;PMS_P2;Temp;Humidity;BMP_temperature;BMP_pressure;BME280_temperature;BME280_humidity;BME280_pressure;Samples;Min_cycle;Max_cycle;Signal;HPM_P1;HPM_P2
2021/05/07 00:16:58;;;;;;;;;;;;;;;;;;;;;
2021/05/07 01:09:26;;;;;;;;;;;;;;;;;;;;;
2021/05/07 02:18:42;;;;;;;;;;;;;;;;;;;;;
2021/05/07 03:01:42;;;;;;;;;;;;;;;;;;;;;
2021/05/07 04:31:52;;;;;;;;;;;;;;;;;;;;;
2021/05/07 04:45:45;;;;;;;144.93;135.30;;;4.30;99.90;;;;;;5814531;24;20412;-82
2021/05/07 04:52:38;;;;;;;151.13;142.37;;;4.50;99.90;;;;;;5860942;24;20441;-82
2021/05/07 04:59:33;;;;;;;;;;;;;;;;;;;;;
2021/05/07 05:08:54;;;;;;;136.10;127.80;;;4.50;99.90;;;;;;5934410;24;20414;-82
2021/05/07 05:18:42;;;;;;;137.03;128.67;;;4.50;99.90;;;;;;5906587;24;20464;-83
2021/05/07 05:24:37;;;;;;;150.70;141.13;;;5.00;99.90;;;;;;5855022;24;20526;-81
2021/05/07 05:38:00;;;;;;;;;;;;;;;;;;;;;
2021/05/07 05:41:09;;;;;;;;;;;;;;;;;;;;;
2021/05/07 06:17:40;;;;;;;114.87;108.27;;;5.20;99.90;;;;;;6117408;23;20460;-88
2021/05/07 06:20:27;;;;;;;112.00;105.70;;;5.30;99.90;;;;;;6094441;23;20527;-86
2021/05/07 06:23:16;;;;;;;113.17;106.83;;;5.30;99.90;;;;;;6106630;23;20958;-83
2021/05/07 06:25:55;;;;;;;98.07;92.30;;;5.40;99.90;;;;;;6105398;23;20503;-83
2021/05/07 06:28:29;;;;;;;99.23;93.27;;;5.40;99.90;;;;;;6107021;23;20484;-88
2021/05/07 06:30:59;;;;;;;98.53;92.80;;;5.40;99.90;;;;;;6105015;23;20423;-87
2021/05/07 06:33:51;;;;;;;89.97;85.07;;;5.60;99.90;;;;;;6106292;23;20470;-85
2021/05/07 06:36:23;;;;;;;82.87;78.47;;;5.60;99.90;;;;;;6106274;23;20425;-87
2021/05/07 06:39:09;;;;;;;87.37;81.60;;;5.50;99.90;;;;;;6106203;23;20411;-86
2021/05/07 06:41:45;;;;;;;83.70;78.93;;;5.70;99.90;;;;;;6105968;23;20447;-85
2021/05/07 06:44:35;;;;;;;80.87;76.00;;;5.70;99.90;;;;;;6097438;23;20410;-84
2021/05/07 06:47:11;;;;;;;101.57;95.55;;;5.70;99.90;;;;;;6015783;23;20425;-88
2021/05/07 06:50:00;;;;;;;86.03;80.67;;;5.70;99.90;;;;;;6090928;23;20936;-89
2021/05/07 06:52:51;;;;;;;83.37;77.60;;;5.80;99.90;;;;;;6107087;23;20419;-88
2021/05/07 06:55:33;;;;;;;80.97;76.40;;;5.90;99.90;;;;;;6107301;23;20408;-87
2021/05/07 06:58:07;;;;;;;80.80;76.17;;;6.20;99.90;;;;;;6107019;23;20509;-88
2021/05/07 07:00:47;;;;;;;84.93;80.00;;;6.20;99.90;;;;;;6106197;23;20964;-86
2021/05/07 07:03:23;;;;;;;84.93;79.90;;;6.40;99.90;;;;;;6106623;23;20414;-88
2021/05/07 07:06:57;;;;;;;;;;;;;;;;;;;;;
2021/05/07 07:09:26;;;;;;;87.30;82.00;;;6.80;99.90;;;;;;6031189;23;20413;-84
2021/05/07 07:11:56;;;;;;;83.20;78.20;;;7.00;99.90;;;;;;6048855;23;20460;-85
2021/05/07 07:14:36;;;;;;;77.87;72.60;;;7.30;99.90;;;;;;6097265;23;20464;-84
2021/05/07 07:17:12;;;;;;;61.73;57.33;;;7.30;99.90;;;;;;6123859;23;20438;-85
2021/05/07 07:19:44;;;;;;;45.77;42.27;;;7.20;99.90;;;;;;6160029;23;20498;-86
2021/05/07 07:22:31;;;;;;;40.20;36.40;;;7.00;99.90;;;;;;6165408;23;20502;-86
2021/05/07 07:25:00;;;;;;;40.33;36.27;;;6.90;99.90;;;;;;6165418;23;20441;-86
2021/05/07 07:30:42;;;;;;;20.93;18.83;;;6.40;99.90;;;;;;6144299;23;20437;-85
2021/05/07 07:33:37;;;;;;;19.33;15.17;;;5.30;99.90;;;;;;6163720;23;20877;-84
2021/05/07 07:36:39;;;;;;;14.27;12.70;;;4.10;99.90;;;;;;6017377;23;20781;-85
2021/05/07 07:39:45;;;;;;;;;;;;;;;;;;;;;
2021/05/07 07:58:18;;;;;;;34.07;31.97;;;2.70;99.90;;;;;;6034457;23;20419;-84
2021/05/07 08:07:58;;;;;;;25.87;24.47;;;3.30;99.90;;;;;;5989567;24;20416;-83
2021/05/07 08:16:30;;;;;;;12.40;10.57;;;3.60;99.90;;;;;;6086413;23;20439;-82
2021/05/07 08:19:26;;;;;;;10.83;9.47;;;3.90;99.90;;;;;;6155259;23;21033;-83
2021/05/07 08:25:40;;;;;;;12.90;11.80;;;4.50;99.90;;;;;;6154068;23;20424;-83
2021/05/07 08:28:51;;;;;;;23.70;21.90;;;5.00;99.90;;;;;;6147815;23;20488;-82
2021/05/07 08:31:28;;;;;;;33.10;31.00;;;5.00;99.90;;;;;;6151089;23;21054;-83
2021/05/07 08:33:59;;;;;;;59.57;56.17;;;5.30;99.90;;;;;;6155654;23;20428;-81
2021/05/07 08:36:35;;;;;;;70.43;65.50;;;5.40;99.90;;;;;;6155737;23;20401;-82
2021/05/07 08:39:14;;;;;;;82.33;77.10;;;5.80;99.90;;;;;;6165490;23;20413;-82
2021/05/07 08:41:59;;;;;;;81.33;76.30;;;5.60;99.90;;;;;;6165371;23;20429;-83
2021/05/07 08:44:25;;;;;;;83.43;78.20;;;5.80;99.90;;;;;;6165157;23;20414;-83
2021/05/07 08:46:55;;;;;;;79.30;74.73;;;5.80;99.90;;;;;;6153881;23;20915;-83
2021/05/07 08:49:25;;;;;;;64.23;60.10;;;6.10;99.90;;;;;;6157456;23;20410;-83
2021/05/07 08:51:53;;;;;;;64.73;61.33;;;5.60;99.90;;;;;;6167294;23;20406;-83
2021/05/07 08:54:20;;;;;;;67.83;63.47;;;5.60;99.90;;;;;;6157457;23;20405;-82
2021/05/07 08:57:03;;;;;;;54.00;50.80;;;6.20;99.90;;;;;;6166981;23;20406;-80
2021/05/07 08:59:36;;;;;;;52.43;48.37;;;6.30;99.90;;;;;;6167064;23;20911;-83
2021/05/07 09:02:11;;;;;;;46.90;44.30;;;6.50;99.90;;;;;;6165103;23;20448;-83
2021/05/07 09:05:03;;;;;;;28.03;25.87;;;7.20;99.90;;;;;;6157346;23;20402;-83
2021/05/07 09:07:37;;;;;;;29.63;27.23;;;7.30;99.90;;;;;;6166699;23;20420;-83
2021/05/07 09:10:09;;;;;;;17.90;16.20;;;7.10;99.90;;;;;;6156983;23;20786;-82
2021/05/07 09:13:00;;;;;;;23.47;20.20;;;7.20;99.90;;;;;;6166783;23;20908;-84
2021/05/07 09:15:54;;;;;;;11.17;5.53;;;7.20;99.90;;;;;;6166582;23;20879;-85
2021/05/07 09:18:31;;;;;;;15.40;4.53;;;6.70;99.90;;;;;;6156073;23;20445;-84
2021/05/07 09:21:08;;;;;;;10.80;3.60;;;6.90;99.90;;;;;;6172034;23;20421;-82
2021/05/07 09:23:42;;;;;;;10.13;2.70;;;7.20;99.90;;;;;;6157004;23;20461;-84
2021/05/07 09:26:13;;;;;;;9.90;2.07;;;7.30;99.90;;;;;;6167160;23;20432;-84
2021/05/07 09:28:55;;;;;;;12.40;2.27;;;7.70;99.90;;;;;;6156607;23;20409;-81
2021/05/07 09:34:47;;;;;;;10.30;1.77;;;8.00;99.90;;;;;;6155130;23;20497;-82
2021/05/07 09:37:27;;;;;;;10.30;1.50;;;7.50;99.90;;;;;;6156998;23;20402;-82
2021/05/07 09:39:57;;;;;;;18.10;2.73;;;7.90;99.90;;;;;;6156474;23;20404;-84
2021/05/07 09:42:32;;;;;;;11.07;1.70;;;8.40;99.90;;;;;;6156903;23;20433;-85
2021/05/07 09:45:30;;;;;;;12.80;2.50;;;9.20;99.90;;;;;;6166435;23;20726;-84
2021/05/07 09:48:25;;;;;;;12.23;2.53;;;8.90;99.90;;;;;;6154885;23;20410;-83
2021/05/07 09:57:15;;;;;;;12.43;2.00;;;8.60;99.90;;;;;;6154852;23;20421;-84
2021/05/07 10:00:23;;;;;;;12.73;2.37;;;9.80;99.90;;;;;;6153732;23;20417;-84
2021/05/07 10:03:05;;;;;;;12.87;2.27;;;10.10;99.90;;;;;;6165712;23;20533;-84
2021/05/07 10:15:15;;;;;;;17.40;2.33;;;11.30;99.90;;;;;;6098123;23;20426;-84
2021/05/07 10:30:45;;;;;;;14.60;1.77;;;10.40;63.20;;;;;;6084270;23;20497;-82
2021/05/07 10:33:29;;;;;;;14.67;2.10;;;10.80;74.60;;;;;;6133711;23;20410;-82
2021/05/07 10:36:18;;;;;;;21.43;2.60;;;10.40;95.50;;;;;;6135211;23;20415;-82
2021/05/07 10:38:55;;;;;;;15.47;2.50;;;10.40;99.90;;;;;;6099062;23;20426;-81
2021/05/07 10:41:41;;;;;;;14.20;2.27;;;11.10;70.60;;;;;;6125938;23;21012;-82
2021/05/07 10:44:08;;;;;;;15.17;1.97;;;11.90;77.80;;;;;;6136259;23;20910;-81
2021/05/07 10:46:44;;;;;;;18.83;2.33;;;12.00;65.70;;;;;;6126211;23;20494;-83
2021/05/07 10:49:20;;;;;;;16.37;1.50;;;11.50;30.70;;;;;;6136138;23;20434;-83
2021/05/07 10:52:15;;;;;;;16.97;1.83;;;12.20;26.10;;;;;;6136491;23;20862;-83
2021/05/07 10:57:58;;;;;;;18.93;2.33;;;12.10;28.50;;;;;;6123068;23;20406;-84
2021/05/07 11:00:35;;;;;;;18.50;2.27;;;11.30;22.40;;;;;;6126351;23;20398;-84
2021/05/07 11:03:04;;;;;;;17.10;1.60;;;11.70;26.40;;;;;;6125306;23;20457;-84
2021/05/07 11:05:42;;;;;;;16.60;1.93;;;11.40;27.90;;;;;;6126442;23;20434;-84
2021/05/07 11:08:34;;;;;;;20.60;2.20;;;10.80;20.20;;;;;;6126767;23;20398;-84
2021/05/07 11:11:27;;;;;;;17.50;1.83;;;11.80;36.60;;;;;;6136067;23;20438;-84
2021/05/07 11:14:31;;;;;;;;;;;;;;;;;;;;;
2021/05/07 11:17:10;;;;;;;16.63;2.40;;;11.30;37.60;;;;;;6134532;23;20478;-83
2021/05/07 11:19:48;;;;;;;15.97;2.40;;;11.10;37.00;;;;;;6135948;23;20465;-83
2021/05/07 11:22:29;;;;;;;15.07;1.87;;;11.20;26.70;;;;;;6136144;23;20442;-83
2021/05/07 11:25:06;;;;;;;15.97;2.10;;;10.80;27.50;;;;;;6136471;23;20407;-83
2021/05/07 11:27:52;;;;;;;16.50;3.07;;;10.50;22.40;;;;;;6136093;23;20413;-82
2021/05/07 11:30:19;;;;;;;14.60;2.50;;;10.80;55.90;;;;;;6136326;23;20410;-83
2021/05/07 11:33:11;;;;;;;14.67;2.43;;;10.20;38.10;;;;;;6134928;23;20411;-84
2021/05/07 11:35:37;;;;;;;13.40;2.23;;;10.30;61.30;;;;;;6136305;23;20423;-83
2021/05/07 11:38:11;;;;;;;12.20;2.00;;;10.60;54.70;;;;;;6135959;23;20460;-84
2021/05/07 11:44:21;;;;;;;;;;;;;;;;;;;;;
2021/05/07 11:50:09;;;;;;;21.00;2.70;;;13.10;8.00;;;;;;6119821;23;20890;-81
2021/05/07 11:52:54;;;;;;;18.30;2.13;;;12.90;14.60;;;;;;6136390;23;20166;-80
2021/05/07 11:55:53;;;;;;;;;;;;;;;;;;;;;
2021/05/07 11:58:50;;;;;;;18.67;1.87;;;13.80;1.00;;;;;;6125652;23;20413;-83
2021/05/07 12:01:20;;;;;;;19.93;2.37;;;13.30;1.00;;;;;;6101374;23;20880;-85
2021/05/07 12:03:50;;;;;;;17.90;1.87;;;12.40;7.60;;;;;;6136139;23;20419;-85
2021/05/07 12:06:31;;;;;;;19.47;2.20;;;12.10;9.30;;;;;;6122820;23;20410;-79
2021/05/07 12:09:14;;;;;;;18.20;3.30;;;12.30;11.10;;;;;;6134759;23;20416;-85
2021/05/07 12:11:41;;;;;;;16.40;2.20;;;13.50;5.90;;;;;;6124754;23;20411;-85
2021/05/07 12:14:21;;;;;;;18.13;2.23;;;14.70;1.00;;;;;;6124266;23;20403;-85
2021/05/07 12:17:00;;;;;;;18.20;2.53;;;14.30;1.00;;;;;;6133398;23;20415;-84
2021/05/07 12:19:29;;;;;;;18.87;2.23;;;14.90;2.10;;;;;;6124671;23;20442;-84
2021/05/07 12:21:57;;;;;;;20.70;2.60;;;15.50;1.00;;;;;;6134664;23;20431;-85
2021/05/07 12:24:30;;;;;;;20.47;2.47;;;14.50;1.00;;;;;;6136078;23;20490;-84
2021/05/07 12:26:59;;;;;;;20.50;2.33;;;14.50;1.00;;;;;;6136391;23;20406;-85
2021/05/07 12:29:37;;;;;;;21.47;2.10;;;14.90;1.00;;;;;;6126313;23;20414;-85
2021/05/07 12:32:07;;;;;;;21.13;2.30;;;14.50;1.00;;;;;;6135485;23;20874;-85
2021/05/07 12:34:34;;;;;;;21.90;2.70;;;14.60;1.00;;;;;;6136101;23;20458;-86
2021/05/07 12:37:03;;;;;;;20.60;2.00;;;14.90;1.00;;;;;;6136425;23;20736;-85
2021/05/07 12:39:31;;;;;;;21.70;2.73;;;15.60;1.00;;;;;;6126473;23;20406;-86
2021/05/07 12:41:59;;;;;;;22.50;3.10;;;15.90;1.00;;;;;;6136581;23;20446;-85
2021/05/07 12:44:26;;;;;;;22.17;2.47;;;16.70;1.00;;;;;;6126624;23;20414;-82
2021/05/07 12:47:00;;;;;;;24.50;2.40;;;17.20;1.00;;;;;;6125392;23;20430;-87
2021/05/07 12:49:37;;;;;;;25.13;2.60;;;15.80;1.00;;;;;;6136444;23;20422;-86
2021/05/07 12:52:04;;;;;;;24.80;2.80;;;14.50;1.00;;;;;;6126589;23;20549;-83
2021/05/07 12:54:35;;;;;;;22.90;2.70;;;13.90;1.00;;;;;;6125870;23;20437;-86
2021/05/07 12:57:01;;;;;;;24.13;3.10;;;14.00;1.00;;;;;;6126461;23;20414;-84
2021/05/07 12:59:33;;;;;;;21.60;2.60;;;14.30;1.00;;;;;;6136462;23;20411;-84
2021/05/07 13:02:03;;;;;;;22.30;2.90;;;14.20;1.00;;;;;;6125288;23;20438;-85
2021/05/07 13:04:32;;;;;;;20.73;2.90;;;13.70;1.00;;;;;;6136340;23;20414;-84
2021/05/07 13:06:58;;;;;;;20.13;2.20;;;14.60;1.00;;;;;;6135747;23;20414;-84
2021/05/07 13:09:24;;;;;;;20.57;2.70;;;15.50;1.00;;;;;;6136618;23;20893;-86
2021/05/07 13:11:53;;;;;;;24.40;2.57;;;16.30;1.00;;;;;;6136975;23;20419;-85
2021/05/07 13:14:22;;;;;;;26.30;2.95;;;15.30;1.00;;;;;;6136348;23;20455;-85
2021/05/07 13:17:00;;;;;;;25.43;3.00;;;15.10;1.00;;;;;;6136029;23;20159;-85
2021/05/07 13:19:31;;;;;;;25.53;3.17;;;14.60;1.00;;;;;;6126295;23;20815;-85
2021/05/07 13:22:05;;;;;;;23.67;3.73;;;14.40;1.00;;;;;;6127582;23;20474;-85
2021/05/07 13:24:35;;;;;;;22.40;2.53;;;15.50;1.00;;;;;;6087211;23;20414;-84
2021/05/07 13:27:07;;;;;;;24.23;3.30;;;16.10;1.00;;;;;;6137208;23;20402;-85
2021/05/07 13:29:40;;;;;;;26.13;3.20;;;16.10;1.00;;;;;;6136925;23;20422;-86
2021/05/07 13:32:17;;;;;;;27.80;3.07;;;16.00;1.00;;;;;;6126090;23;20403;-85
2021/05/07 13:34:52;;;;;;;25.80;3.43;;;16.50;1.00;;;;;;6137371;23;20417;-86
2021/05/07 13:37:21;;;;;;;26.80;3.13;;;17.20;1.00;;;;;;6137409;23;20472;-84
2021/05/07 13:39:59;;;;;;;30.90;5.70;;;17.70;1.00;;;;;;6137332;23;20418;-85
2021/05/07 13:42:29;;;;;;;31.40;4.23;;;15.70;1.00;;;;;;6136752;23;20419;-84
2021/05/07 13:44:56;;;;;;;32.03;4.00;;;15.40;1.00;;;;;;6137256;23;20920;-85
2021/05/07 13:47:27;;;;;;;30.10;4.50;;;13.90;1.00;;;;;;6125596;23;20941;-84
2021/05/07 13:49:55;;;;;;;30.60;4.70;;;14.10;1.00;;;;;;6127160;23;20933;-83
2021/05/07 13:52:21;;;;;;;32.63;5.50;;;13.60;1.00;;;;;;6137028;23;20439;-85
2021/05/07 13:54:56;;;;;;;24.80;2.80;;;12.70;1.00;;;;;;6127221;23;20409;-84
2021/05/07 13:57:23;;;;;;;23.07;3.77;;;12.80;1.00;;;;;;6127497;23;20399;-85
2021/05/07 13:59:49;;;;;;;23.70;3.80;;;12.80;1.00;;;;;;6136930;23;20890;-85
2021/05/07 14:02:19;;;;;;;22.50;3.60;;;12.60;1.00;;;;;;6135608;23;20403;-84
2021/05/07 14:04:46;;;;;;;20.33;3.23;;;12.30;1.00;;;;;;6127443;23;20403;-83
2021/05/07 14:07:14;;;;;;;19.63;3.30;;;12.40;1.00;;;;;;6136772;23;20418;-85
2021/05/07 14:09:41;;;;;;;19.30;4.20;;;12.40;1.00;;;;;;6127323;23;20399;-82
2021/05/07 14:12:10;;;;;;;20.50;5.07;;;12.40;1.00;;;;;;6127228;23;20438;-85
2021/05/07 14:14:37;;;;;;;19.17;4.10;;;12.70;1.00;;;;;;6127130;23;20513;-85
2021/05/07 14:17:03;;;;;;;20.60;3.97;;;12.90;1.00;;;;;;6125627;23;20403;-86
2021/05/07 14:19:29;;;;;;;18.97;3.60;;;13.10;1.00;;;;;;6136394;23;20497;-83
2021/05/07 14:21:56;;;;;;;18.43;3.47;;;13.70;1.00;;;;;;6137193;23;20765;-85
2021/05/07 14:24:30;;;;;;;21.30;5.33;;;14.10;1.00;;;;;;6127181;23;20403;-80
2021/05/07 14:26:59;;;;;;;21.13;3.10;;;14.50;1.00;;;;;;6133274;23;20414;-79
2021/05/07 14:29:26;;;;;;;20.97;3.40;;;14.50;1.00;;;;;;6135275;23;20437;-84
2021/05/07 14:31:52;;;;;;;23.93;4.20;;;14.30;1.00;;;;;;6134180;23;20431;-85
2021/05/07 14:34:19;;;;;;;28.63;3.40;;;13.90;1.00;;;;;;6125874;23;20438;-83
2021/05/07 14:36:45;;;;;;;22.27;3.57;;;14.00;1.00;;;;;;6125445;23;20718;-81
2021/05/07 14:39:14;;;;;;;21.60;3.17;;;13.70;1.00;;;;;;6135421;23;20486;-86
2021/05/07 14:41:42;;;;;;;21.40;3.60;;;14.10;1.00;;;;;;6125370;23;20461;-81
2021/05/07 14:44:08;;;;;;;26.03;4.40;;;14.70;1.00;;;;;;6125096;23;20410;-86
2021/05/07 14:46:34;;;;;;;21.20;3.10;;;14.70;1.00;;;;;;6124210;23;20528;-82
2021/05/07 14:49:01;;;;;;;22.90;3.80;;;14.70;1.00;;;;;;6135124;23;20410;-82
2021/05/07 14:51:28;;;;;;;23.10;3.60;;;14.50;1.00;;;;;;6125631;23;20537;-86
2021/05/07 14:53:54;;;;;;;22.60;2.97;;;14.30;1.00;;;;;;6125307;23;20482;-83
2021/05/07 14:56:21;;;;;;;22.80;4.00;;;14.10;1.00;;;;;;6135224;23;20945;-82
2021/05/07 14:58:48;;;;;;;22.53;3.03;;;13.30;1.00;;;;;;6124986;23;20403;-83
2021/05/07 15:01:15;;;;;;;22.33;4.00;;;13.30;1.00;;;;;;6124145;23;20415;-82
2021/05/07 15:03:41;;;;;;;20.00;2.70;;;13.40;1.00;;;;;;6135133;23;20446;-83
2021/05/07 15:06:10;;;;;;;20.63;3.17;;;13.80;1.00;;;;;;6125124;23;20438;-86
2021/05/07 15:08:36;;;;;;;21.03;3.50;;;14.00;1.00;;;;;;6135157;23;20407;-84
2021/05/07 15:11:02;;;;;;;19.60;3.00;;;13.80;1.00;;;;;;6125140;23;20485;-86
2021/05/07 15:13:29;;;;;;;20.97;2.90;;;13.90;1.00;;;;;;6134743;23;20446;-85
2021/05/07 15:15:56;;;;;;;19.50;2.90;;;14.00;1.00;;;;;;6135181;23;20422;-83
2021/05/07 15:18:25;;;;;;;20.60;3.40;;;14.30;1.00;;;;;;6123983;23;20410;-82
2021/05/07 15:20:55;;;;;;;20.50;3.30;;;14.10;1.00;;;;;;6125056;23;20930;-86
2021/05/07 15:23:22;;;;;;;21.30;3.53;;;15.00;1.00;;;;;;6124487;23;20418;-86
2021/05/07 15:25:49;;;;;;;21.00;2.97;;;16.00;1.00;;;;;;6124845;23;20407;-83
2021/05/07 15:28:15;;;;;;;22.60;2.80;;;16.60;1.00;;;;;;6134477;23;20406;-87
2021/05/07 15:30:42;;;;;;;24.60;3.10;;;17.50;1.00;;;;;;6135270;23;20410;-89
2021/05/07 15:33:09;;;;;;;26.07;3.23;;;17.00;1.00;;;;;;6124518;23;20403;-88
2021/05/07 15:35:35;;;;;;;28.03;3.87;;;16.50;1.00;;;;;;6125478;23;20407;-80
2021/05/07 15:38:03;;;;;;;28.00;3.60;;;16.70;1.00;;;;;;6124623;23;20402;-86
2021/05/07 15:40:31;;;;;;;27.90;3.23;;;16.50;1.00;;;;;;6125172;23;20453;-85
2021/05/07 15:42:59;;;;;;;28.60;3.33;;;15.80;1.00;;;;;;6135473;23;20399;-88
2021/05/07 15:45:27;;;;;;;30.83;3.00;;;15.20;1.00;;;;;;6124599;23;20410;-86
2021/05/07 15:47:53;;;;;;;25.17;2.90;;;14.70;1.00;;;;;;6123759;23;20409;-85
2021/05/07 15:50:23;;;;;;;27.30;3.60;;;14.80;1.00;;;;;;6125094;23;20831;-84
2021/05/07 15:52:49;;;;;;;24.07;3.60;;;14.60;1.00;;;;;;6124497;23;20519;-86
2021/05/07 15:55:15;;;;;;;27.07;4.20;;;14.30;1.00;;;;;;6134119;23;20419;-87
2021/05/07 15:57:43;;;;;;;23.53;4.17;;;14.00;1.00;;;;;;6124947;23;20490;-85
2021/05/07 16:00:10;;;;;;;23.00;4.37;;;13.90;1.00;;;;;;6124950;23;20485;-86
2021/05/07 16:02:37;;;;;;;21.80;4.57;;;13.60;1.00;;;;;;6133329;23;20422;-85
2021/05/07 16:05:04;;;;;;;20.80;3.83;;;13.40;1.00;;;;;;6134107;23;20414;-82
2021/05/07 16:07:31;;;;;;;20.43;4.20;;;13.20;1.00;;;;;;6124237;23;20403;-87
2021/05/07 16:09:58;;;;;;;20.03;4.20;;;13.20;1.00;;;;;;6134144;23;20470;-87
2021/05/07 16:12:26;;;;;;;19.70;4.30;;;13.20;1.00;;;;;;6124539;23;20541;-87
2021/05/07 16:14:52;;;;;;;20.50;4.60;;;13.30;1.00;;;;;;6124322;23;20462;-86
2021/05/07 16:17:19;;;;;;;22.27;5.07;;;13.00;1.00;;;;;;6123035;23;20422;-83
2021/05/07 16:19:47;;;;;;;19.60;3.87;;;13.50;1.00;;;;;;6125161;23;20441;-86
2021/05/07 16:22:13;;;;;;;18.17;4.17;;;14.00;1.00;;;;;;6134709;23;20708;-88
2021/05/07 16:24:41;;;;;;;21.17;4.80;;;14.40;1.00;;;;;;6124468;23;20437;-88
2021/05/07 16:27:07;;;;;;;21.27;4.77;;;14.70;1.00;;;;;;6124778;23;20395;-88
2021/05/07 16:29:34;;;;;;;22.17;4.27;;;14.30;1.00;;;;;;6124950;23;20402;-87
2021/05/07 16:32:00;;;;;;;22.70;4.73;;;14.10;1.00;;;;;;6123478;23;20442;-87
2021/05/07 16:34:26;;;;;;;20.80;4.33;;;13.90;1.00;;;;;;6124184;23;20403;-83
2021/05/07 16:36:54;;;;;;;20.90;5.30;;;14.00;1.00;;;;;;6134558;23;20477;-85
2021/05/07 16:39:22;;;;;;;21.97;4.97;;;13.80;1.00;;;;;;6124703;23;20418;-84
2021/05/07 16:41:50;;;;;;;21.27;4.53;;;13.70;1.00;;;;;;6134198;23;20917;-82
2021/05/07 16:44:18;;;;;;;19.87;4.37;;;13.40;1.00;;;;;;6124125;23;20918;-83
2021/05/07 16:46:44;;;;;;;20.27;5.23;;;13.30;1.00;;;;;;6123534;23;20434;-85
2021/05/07 16:49:14;;;;;;;20.03;5.57;;;13.40;1.00;;;;;;6124015;23;20414;-82
2021/05/07 16:51:40;;;;;;;20.30;5.13;;;13.20;1.00;;;;;;6134308;23;20430;-83
2021/05/07 16:54:07;;;;;;;24.50;4.97;;;13.10;1.00;;;;;;6133816;23;20543;-83
2021/05/07 16:56:33;;;;;;;19.80;4.90;;;13.20;1.00;;;;;;6124490;23;20407;-83
2021/05/07 16:59:04;;;;;;;19.73;4.97;;;13.10;1.00;;;;;;6134127;23;20414;-86
2021/05/07 17:01:33;;;;;;;18.27;4.70;;;14.00;1.00;;;;;;6124521;23;20489;-83
2021/05/07 17:04:02;;;;;;;19.53;4.87;;;13.80;1.00;;;;;;6126009;23;20407;-83
2021/05/07 17:06:29;;;;;;;19.33;4.60;;;14.50;1.00;;;;;;6125688;23;20453;-84
2021/05/07 17:09:04;;;;;;;19.03;4.10;;;15.50;1.00;;;;;;6136797;23;20477;-86
2021/05/07 17:11:32;;;;;;;20.17;4.23;;;15.80;1.00;;;;;;6137079;23;20504;-86
2021/05/07 17:14:00;;;;;;;21.43;3.90;;;15.80;1.00;;;;;;6127759;23;20460;-85
2021/05/07 17:16:26;;;;;;;22.30;3.77;;;15.50;1.00;;;;;;6135829;23;20481;-86
2021/05/07 17:18:56;;;;;;;21.47;3.60;;;14.90;1.00;;;;;;6136858;23;20871;-86
2021/05/07 17:21:23;;;;;;;20.70;3.50;;;14.30;1.00;;;;;;6127964;23;20465;-81
2021/05/07 17:23:49;;;;;;;21.60;4.43;;;15.70;1.00;;;;;;6127304;23;20403;-81
2021/05/07 17:26:15;;;;;;;27.47;4.50;;;16.20;1.00;;;;;;6127386;23;20407;-85
2021/05/07 17:28:42;;;;;;;20.80;3.70;;;15.70;1.00;;;;;;6127404;23;20465;-85
2021/05/07 17:31:09;;;;;;;22.90;4.33;;;16.80;1.00;;;;;;6136545;23;20777;-81
2021/05/07 17:33:36;;;;;;;20.87;3.97;;;17.10;1.00;;;;;;6136143;23;20502;-86
2021/05/07 17:36:06;;;;;;;23.07;3.87;;;17.40;1.00;;;;;;6127319;23;20415;-84
2021/05/07 17:38:32;;;;;;;26.27;4.00;;;17.10;1.00;;;;;;6137459;23;20436;-86
2021/05/07 17:40:59;;;;;;;21.83;3.47;;;16.40;1.00;;;;;;6130355;23;20402;-83
2021/05/07 17:43:27;;;;;;;22.27;3.80;;;15.40;1.00;;;;;;6126966;23;20399;-86
2021/05/07 17:45:55;;;;;;;24.23;4.00;;;15.80;1.00;;;;;;6136506;23;20422;-86
2021/05/07 17:48:36;;;;;;;;;;;;;;;;;;;;;
2021/05/07 17:51:02;;;;;;;20.47;3.37;;;15.90;1.00;;;;;;6103777;23;20523;-84
2021/05/07 17:53:29;;;;;;;20.47;4.00;;;16.00;1.00;;;;;;6127608;23;20431;-84
2021/05/07 17:55:55;;;;;;;19.97;3.13;;;16.40;1.00;;;;;;6127383;23;20779;-87
2021/05/07 17:58:22;;;;;;;21.20;4.20;;;15.80;1.00;;;;;;6127040;23;20437;-82
2021/05/07 18:00:48;;;;;;;20.63;3.77;;;15.40;1.00;;;;;;6130708;23;20499;-86
2021/05/07 18:03:18;;;;;;;20.73;4.40;;;14.40;1.00;;;;;;6125880;23;20426;-85
2021/05/07 18:05:45;;;;;;;20.03;3.70;;;13.50;1.00;;;;;;6136943;23;20439;-82
2021/05/07 18:08:11;;;;;;;18.80;3.73;;;13.10;1.00;;;;;;6136758;23;20418;-83
2021/05/07 18:10:39;;;;;;;18.53;3.67;;;12.70;1.00;;;;;;6130656;23;20773;-82
2021/05/07 18:13:07;;;;;;;17.97;4.10;;;12.60;1.00;;;;;;6127300;23;20450;-82
2021/05/07 18:15:33;;;;;;;19.80;4.03;;;12.40;1.00;;;;;;6127120;23;20411;-83
2021/05/07 18:18:00;;;;;;;16.77;3.70;;;12.50;1.00;;;;;;6126001;23;20470;-81
2021/05/07 18:20:29;;;;;;;16.60;3.70;;;12.50;1.00;;;;;;6139719;23;20816;-82
2021/05/07 18:22:56;;;;;;;15.20;3.80;;;12.20;1.00;;;;;;6136479;23;20399;-85
2021/05/07 18:25:23;;;;;;;17.33;4.20;;;12.10;1.00;;;;;;6136968;23;20778;-85
2021/05/07 18:27:49;;;;;;;19.90;3.90;;;12.00;1.00;;;;;;6126843;23;20654;-83
2021/05/07 18:30:19;;;;;;;20.90;5.87;;;11.60;52.40;;;;;;6140759;23;20407;-86
2021/05/07 18:32:46;;;;;;;16.70;4.60;;;11.50;53.90;;;;;;6125517;23;20434;-84
2021/05/07 18:35:13;;;;;;;16.90;5.17;;;11.20;59.90;;;;;;6126737;23;20403;-84
2021/05/07 18:37:39;;;;;;;19.03;4.70;;;11.00;67.40;;;;;;6127014;23;20493;-86
2021/05/07 18:40:11;;;;;;;15.97;4.20;;;11.00;55.60;;;;;;6127123;23;20438;-83
2021/05/07 18:42:38;;;;;;;17.50;5.00;;;11.10;36.30;;;;;;6136840;23;20435;-86
2021/05/07 18:45:08;;;;;;;16.27;3.80;;;10.90;26.40;;;;;;6126678;23;20477;-84
2021/05/07 18:47:34;;;;;;;17.43;5.40;;;10.80;24.50;;;;;;6125507;23;20773;-84
2021/05/07 18:50:00;;;;;;;15.90;5.03;;;10.60;27.40;;;;;;6127067;23;20898;-84
2021/05/07 18:52:29;;;;;;;16.97;4.93;;;10.40;25.60;;;;;;6126574;23;20438;-83
2021/05/07 18:54:57;;;;;;;17.50;5.93;;;10.30;27.20;;;;;;6136918;23;20438;-85
2021/05/07 18:57:25;;;;;;;16.60;4.77;;;10.20;27.10;;;;;;6136261;23;20409;-82
2021/05/07 18:59:51;;;;;;;14.73;4.13;;;10.20;33.20;;;;;;6127024;23;20903;-86
2021/05/07 19:02:18;;;;;;;13.80;4.33;;;10.20;32.40;;;;;;6125643;23;20775;-83
2021/05/07 19:04:44;;;;;;;15.10;5.30;;;10.00;29.90;;;;;;6136615;23;20437;-82
2021/05/07 19:07:10;;;;;;;15.60;5.70;;;9.80;36.90;;;;;;6126932;23;20399;-83
2021/05/07 19:09:41;;;;;;;16.63;4.40;;;9.70;33.70;;;;;;6137312;23;20454;-82
2021/05/07 19:12:07;;;;;;;18.53;5.40;;;9.40;39.40;;;;;;6137235;23;20451;-83
2021/05/07 19:14:42;;;;;;;13.50;5.07;;;9.20;45.70;;;;;;6136553;23;20414;-86
2021/05/07 19:17:11;;;;;;;14.03;3.40;;;9.00;42.60;;;;;;6125211;23;20410;-86
2021/05/07 19:19:44;;;;;;;14.53;4.77;;;8.80;58.80;;;;;;6126232;23;20481;-85
2021/05/07 19:22:12;;;;;;;14.47;5.37;;;8.60;90.20;;;;;;6136408;23;20417;-84
2021/05/07 19:24:40;;;;;;;14.13;4.83;;;8.30;99.90;;;;;;6136465;23;20474;-86
2021/05/07 19:27:27;;;;;;;14.20;5.57;;;8.20;99.30;;;;;;6136584;23;20418;-85
2021/05/07 19:30:00;;;;;;;14.80;5.17;;;8.10;95.70;;;;;;6137082;23;20474;-82
2021/05/07 19:32:26;;;;;;;12.17;4.43;;;7.90;99.90;;;;;;6125854;23;20442;-86
2021/05/07 19:34:55;;;;;;;14.97;4.90;;;8.00;90.90;;;;;;6137122;23;20453;-87
2021/05/07 19:37:53;;;;;;;15.80;4.90;;;7.90;95.30;;;;;;6136113;23;20419;-85
2021/05/07 19:40:20;;;;;;;16.60;5.83;;;7.80;94.10;;;;;;6125914;23;20415;-85
2021/05/07 19:42:48;;;;;;;14.57;5.10;;;7.70;99.90;;;;;;6136120;23;20403;-85
2021/05/07 19:45:19;;;;;;;17.47;5.90;;;7.60;97.10;;;;;;6126735;23;20414;-86
2021/05/07 19:47:53;;;;;;;19.00;6.80;;;7.50;99.20;;;;;;6134893;23;20796;-85
2021/05/07 19:50:26;;;;;;;15.33;5.23;;;7.30;99.90;;;;;;6135553;23;20738;-85
2021/05/07 19:52:56;;;;;;;18.63;5.87;;;7.20;99.90;;;;;;6126250;23;20438;-82
2021/05/07 19:55:22;;;;;;;24.07;5.93;;;7.20;99.90;;;;;;6136018;23;20418;-85
2021/05/07 19:57:52;;;;;;;19.03;7.57;;;7.20;99.90;;;;;;6135964;23;20403;-87
2021/05/07 20:00:20;;;;;;;15.00;5.53;;;6.90;99.90;;;;;;6136449;23;20447;-87
2021/05/07 20:02:50;;;;;;;15.67;6.00;;;6.80;99.90;;;;;;6135023;23;20411;-85
2021/05/07 20:05:16;;;;;;;17.50;4.77;;;6.60;99.90;;;;;;6136073;23;20418;-87
2021/05/07 20:07:47;;;;;;;10.93;4.50;;;6.40;99.90;;;;;;6135858;23;20421;-87
2021/05/07 20:10:15;;;;;;;15.60;5.63;;;6.20;99.90;;;;;;6125905;23;20493;-86
2021/05/07 20:12:42;;;;;;;18.20;6.70;;;6.10;99.90;;;;;;6136030;23;20509;-87
2021/05/07 20:15:11;;;;;;;19.10;8.47;;;6.00;99.90;;;;;;6126392;23;20445;-88
2021/05/07 20:17:39;;;;;;;18.10;7.30;;;5.90;99.90;;;;;;6134759;23;20886;-86
2021/05/07 20:20:14;;;;;;;22.27;6.63;;;5.90;99.90;;;;;;6135914;23;20442;-87
2021/05/07 20:22:41;;;;;;;15.70;7.77;;;5.70;99.90;;;;;;6135709;23;20885;-84
2021/05/07 20:25:16;;;;;;;14.80;5.57;;;5.70;99.90;;;;;;6136023;23;20749;-87
2021/05/07 20:27:44;;;;;;;14.13;5.60;;;5.70;99.90;;;;;;6135915;23;20424;-89